createdAt,value
2023-09-17T08:18:33.047Z,25.20
2023-09-17T08:21:00.514Z,25.58
2023-09-17T08:23:27.562Z,25.98
2023-09-17T08:25:55.347Z,26.28
2023-09-17T08:28:24.254Z,26.43
2023-09-17T08:30:51.136Z,26.59
2023-09-17T08:33:18.309Z,26.93
2023-09-17T08:35:45.958Z,26.86
2023-09-17T08:38:12.984Z,26.44
2023-09-17T08:40:40.848Z,26.02
2023-09-17T08:43:07.819Z,25.98
2023-09-17T08:45:34.988Z,25.90
2023-09-17T08:48:01.990Z,25.73
2023-09-17T08:50:30.381Z,25.55
2023-09-17T08:53:00.513Z,25.29
2023-09-17T08:55:27.657Z,24.84
2023-09-17T08:58:12.922Z,24.41
2023-09-17T09:00:39.794Z,24.21
2023-09-17T09:03:07.722Z,23.95
2023-09-17T09:05:36.361Z,23.60
2023-09-17T09:08:05.952Z,23.28
2023-09-17T09:10:32.912Z,23.05
2023-09-17T09:13:01.222Z,23.01
2023-09-17T09:15:28.257Z,23.05
2023-09-17T09:17:57.905Z,23.08
2023-09-17T09:20:25.661Z,23.14
2023-09-17T09:22:52.823Z,23.22
2023-09-17T09:25:20.012Z,23.35
2023-09-17T09:27:46.926Z,23.42
2023-09-17T09:30:17.634Z,23.33
2023-09-17T09:32:44.995Z,23.28
2023-09-17T09:35:12.130Z,23.26
2023-09-17T09:37:39.264Z,23.24
2023-09-17T09:40:07.709Z,23.17
2023-09-17T09:42:34.768Z,23.06
2023-09-17T09:45:03.469Z,23.08
2023-09-17T09:47:31.518Z,23.13
2023-09-17T09:49:58.536Z,23.23
2023-09-17T09:52:25.503Z,23.29
2023-09-17T09:54:52.373Z,23.33
2023-09-17T09:57:20.296Z,23.41
2023-09-17T09:59:48.847Z,23.33
2023-09-17T10:02:17.082Z,23.25
2023-09-17T10:04:45.346Z,23.25
2023-09-17T10:07:12.605Z,23.35
2023-09-17T10:09:39.713Z,23.39
2023-09-17T10:12:07.437Z,23.40
2023-09-17T10:14:39.009Z,23.37
2023-09-17T10:17:09.470Z,23.36
2023-09-17T10:19:36.666Z,23.35
2023-09-17T10:22:08.848Z,23.36
2023-09-17T10:24:37.512Z,23.36
2023-09-17T10:27:05.721Z,23.36
2023-09-17T10:29:33.121Z,23.46
2023-09-17T10:32:00.148Z,23.60
2023-09-17T10:34:27.207Z,23.63
2023-09-17T10:36:54.248Z,23.63
2023-09-17T10:39:21.099Z,23.62
2023-09-17T10:41:49.759Z,23.59
2023-09-17T10:44:17.610Z,23.56
2023-09-17T10:46:46.495Z,23.61
2023-09-17T10:49:13.574Z,23.61
2023-09-17T10:51:41.017Z,23.59
2023-09-17T10:54:07.920Z,23.58
2023-09-17T10:56:35.065Z,23.65
2023-09-17T10:59:02.249Z,23.76
2023-09-17T11:01:32.291Z,23.75
2023-09-17T11:04:02.339Z,23.77
2023-09-17T11:06:30.588Z,23.83
2023-09-17T11:08:57.893Z,23.82
2023-09-17T11:11:26.036Z,23.70
2023-09-17T11:13:53.777Z,23.62
2023-09-17T11:16:28.364Z,23.56
2023-09-17T11:19:09.752Z,23.53
2023-09-17T11:21:38.021Z,23.66
2023-09-17T11:24:10.755Z,23.78
2023-09-17T11:26:39.776Z,23.86
2023-09-17T11:29:07.337Z,23.80
2023-09-17T11:31:58.756Z,23.63
2023-09-17T11:34:25.731Z,23.45
2023-09-17T11:36:53.385Z,23.29
2023-09-17T11:39:22.820Z,23.23
2023-09-17T11:42:04.526Z,23.12
2023-09-17T11:44:36.380Z,22.99
2023-09-17T11:47:04.384Z,22.83
2023-09-17T11:49:32.348Z,22.67
2023-09-17T11:52:00.935Z,22.54
2023-09-17T11:54:35.264Z,22.45
2023-09-17T11:57:02.259Z,22.48
2023-09-17T11:59:29.712Z,22.59
2023-09-17T12:01:58.271Z,22.75
2023-09-17T12:04:30.111Z,22.94
2023-09-17T12:06:57.259Z,23.11
2023-09-17T12:09:50.855Z,23.26
2023-09-17T12:12:20.516Z,23.40
2023-09-17T12:14:48.832Z,23.48
2023-09-17T12:17:17.697Z,23.47
2023-09-17T12:19:46.826Z,23.38
2023-09-17T12:22:14.099Z,23.43
2023-09-17T12:24:50.922Z,23.55
2023-09-17T12:27:30.989Z,23.55
2023-09-17T12:29:58.627Z,23.51
2023-09-17T12:32:27.055Z,23.47
2023-09-17T12:34:55.114Z,23.34
2023-09-17T12:37:22.540Z,23.32
2023-09-17T12:39:50.841Z,23.30
2023-09-17T12:42:18.213Z,23.32
2023-09-17T12:44:45.143Z,23.35
2023-09-17T12:47:12.115Z,23.34
2023-09-17T12:49:39.102Z,23.31
2023-09-17T12:52:06.070Z,23.24
2023-09-17T12:54:33.717Z,23.15
2023-09-17T12:57:00.635Z,23.11
2023-09-17T12:59:34.856Z,23.08
2023-09-17T13:02:04.792Z,23.07
2023-09-17T13:04:38.863Z,23.04
2023-09-17T13:07:07.074Z,23.07
2023-09-17T13:09:34.010Z,23.17
2023-09-17T13:12:02.418Z,23.26
2023-09-17T13:14:31.630Z,23.32
2023-09-17T13:16:58.631Z,23.35
2023-09-17T13:19:25.995Z,23.34
2023-09-17T13:21:52.951Z,23.32
2023-09-17T13:24:20.261Z,23.29
2023-09-17T13:26:47.174Z,23.26
2023-09-17T13:29:14.122Z,23.25
2023-09-17T13:31:41.978Z,23.24
2023-09-17T13:34:09.820Z,23.24
2023-09-17T13:36:37.207Z,23.26
2023-09-17T13:39:04.714Z,23.29
2023-09-17T13:41:31.830Z,23.33
2023-09-17T13:43:59.444Z,23.31
2023-09-17T13:46:28.630Z,23.22
2023-09-17T13:48:56.269Z,23.14
2023-09-17T13:51:23.216Z,23.08
2023-09-17T13:53:50.070Z,22.96
2023-09-17T13:56:17.258Z,22.89
2023-09-17T13:58:44.406Z,22.81
2023-09-17T14:01:13.480Z,22.76
2023-09-17T14:03:40.488Z,22.66
2023-09-17T14:06:07.458Z,22.54
2023-09-17T14:08:35.765Z,22.49
2023-09-17T14:11:04.251Z,22.46
2023-09-17T14:13:31.602Z,22.46
2023-09-17T14:15:58.517Z,22.44
2023-09-17T14:18:25.549Z,22.39
2023-09-17T14:20:52.452Z,22.28
2023-09-17T14:23:19.393Z,22.24
2023-09-17T14:25:46.316Z,22.21
2023-09-17T14:28:13.265Z,22.21
2023-09-17T14:30:40.257Z,22.16
2023-09-17T14:33:07.336Z,22.10
2023-09-17T14:35:35.089Z,22.06
2023-09-17T14:38:02.499Z,22.05
2023-09-17T14:40:29.773Z,21.98
2023-09-17T14:42:56.894Z,21.92
2023-09-17T14:45:23.981Z,21.86
2023-09-17T14:47:51.431Z,21.78
2023-09-17T14:50:18.578Z,21.74
2023-09-17T14:52:45.520Z,21.70
2023-09-17T14:55:13.252Z,21.63
2023-09-17T14:57:41.680Z,21.54
2023-09-17T15:00:10.453Z,21.47
2023-09-17T15:02:37.697Z,21.39
2023-09-17T15:05:05.173Z,21.30
2023-09-17T15:07:32.331Z,21.17
2023-09-17T15:09:59.342Z,21.07
2023-09-17T15:12:28.434Z,20.99
2023-09-17T15:14:55.285Z,20.92
2023-09-17T15:17:24.891Z,20.84
2023-09-17T15:19:51.910Z,20.73
2023-09-17T15:22:18.886Z,20.64
2023-09-17T15:24:46.113Z,20.59
2023-09-17T15:27:13.006Z,20.55
2023-09-17T15:29:39.855Z,20.48
2023-09-17T15:32:07.412Z,20.40
2023-09-17T15:34:36.552Z,20.34
2023-09-17T15:37:04.110Z,20.30
2023-09-17T15:39:30.995Z,20.25
2023-09-17T15:41:58.585Z,20.15
2023-09-17T15:44:25.985Z,20.04
2023-09-17T15:46:53.073Z,19.95
2023-09-17T15:49:19.925Z,19.93
2023-09-17T15:51:46.881Z,19.90
2023-09-17T15:54:14.192Z,19.85
2023-09-17T15:56:42.320Z,19.77
2023-09-17T15:59:10.424Z,19.68
2023-09-17T16:01:39.941Z,19.60
2023-09-17T16:04:06.995Z,19.53
2023-09-17T16:06:34.012Z,19.44
2023-09-17T16:09:01.013Z,19.34
2023-09-17T16:11:27.904Z,19.23
2023-09-17T16:13:55.207Z,19.14
2023-09-17T16:16:22.528Z,19.06
2023-09-17T16:18:49.507Z,18.98
2023-09-17T16:21:16.704Z,18.92
2023-09-17T16:23:43.613Z,18.85
2023-09-17T16:26:10.558Z,18.79
2023-09-17T16:28:37.480Z,18.74
2023-09-17T16:31:04.453Z,18.70
2023-09-17T16:33:31.425Z,18.66
2023-09-17T16:36:00.747Z,18.62
2023-09-17T16:38:27.818Z,18.58
2023-09-17T16:40:55.001Z,18.55
2023-09-17T16:43:22.267Z,18.50
2023-09-17T16:45:49.304Z,18.44
2023-09-17T16:48:16.565Z,18.38
2023-09-17T16:50:43.780Z,18.28
2023-09-17T16:53:10.829Z,18.16
2023-09-17T16:55:39.218Z,18.06
2023-09-17T16:58:06.277Z,17.96
2023-09-17T17:00:33.655Z,17.87
2023-09-17T17:03:00.956Z,17.81
2023-09-17T17:05:28.039Z,17.77
2023-09-17T17:07:55.125Z,17.75
2023-09-17T17:10:22.093Z,17.64
2023-09-17T17:12:49.069Z,17.52
2023-09-17T17:15:16.089Z,17.39
2023-09-17T17:17:43.413Z,17.25
2023-09-17T17:20:10.795Z,17.15
2023-09-17T17:22:48.731Z,17.05
2023-09-17T17:25:19.258Z,16.95
2023-09-17T17:27:47.488Z,16.88
2023-09-17T17:30:14.748Z,16.83
2023-09-17T17:32:43.700Z,16.80
2023-09-17T17:35:11.090Z,16.75
2023-09-17T17:37:39.341Z,16.67
2023-09-17T17:40:06.739Z,16.61
2023-09-17T17:42:33.906Z,16.54
2023-09-17T17:45:00.827Z,16.46
2023-09-17T17:47:28.609Z,16.38
2023-09-17T17:49:57.287Z,16.28
2023-09-17T17:52:24.467Z,16.19
2023-09-17T17:54:51.502Z,16.12
2023-09-17T17:57:21.371Z,16.08
2023-09-17T17:59:48.437Z,16.02
2023-09-17T18:02:15.521Z,15.95
2023-09-17T18:04:42.940Z,15.91
2023-09-17T18:07:11.995Z,15.92
2023-09-17T18:09:39.296Z,15.93
2023-09-17T18:12:06.415Z,15.92
2023-09-17T18:14:33.454Z,15.89
2023-09-17T18:17:00.729Z,15.83
2023-09-17T18:19:27.868Z,15.75
2023-09-17T18:21:55.004Z,15.70
2023-09-17T18:24:24.774Z,15.66
2023-09-17T18:26:52.063Z,15.63
2023-09-17T18:29:23.066Z,15.57
2023-09-17T18:31:50.279Z,15.49
2023-09-17T18:35:08.030Z,15.44
2023-09-17T18:37:35.179Z,15.40
2023-09-17T18:40:02.109Z,15.37
2023-09-17T18:42:30.382Z,15.34
2023-09-17T18:44:57.919Z,15.29
2023-09-17T18:47:24.901Z,15.27
2023-09-17T18:49:53.639Z,15.22
2023-09-17T18:52:20.690Z,15.19
2023-09-17T18:54:47.776Z,15.19
2023-09-17T18:57:16.478Z,15.19
2023-09-17T18:59:45.647Z,15.17
2023-09-17T19:02:12.781Z,15.14
2023-09-17T19:04:40.519Z,15.10
2023-09-17T19:07:08.065Z,15.01
2023-09-17T19:09:35.022Z,14.95
2023-09-17T19:12:06.223Z,14.91
2023-09-17T19:14:41.312Z,14.86
2023-09-17T19:17:09.536Z,14.83
2023-09-17T19:19:36.596Z,14.82
2023-09-17T19:22:10.305Z,14.79
2023-09-17T19:24:37.951Z,14.74
2023-09-17T19:27:05.361Z,14.69
2023-09-17T19:29:32.556Z,14.64
2023-09-17T19:31:59.748Z,14.57
2023-09-17T19:34:27.402Z,14.52
2023-09-17T19:36:54.381Z,14.48
2023-09-17T19:39:21.270Z,14.48
2023-09-17T19:41:48.215Z,14.49
2023-09-17T19:44:15.270Z,14.50
2023-09-17T19:46:42.502Z,14.52
2023-09-17T19:49:35.424Z,14.52
2023-09-17T19:52:02.487Z,14.49
2023-09-17T19:54:29.492Z,14.45
2023-09-17T19:56:56.447Z,14.40
2023-09-17T19:59:23.655Z,14.36
2023-09-17T20:01:50.982Z,14.32
2023-09-17T20:04:17.942Z,14.30
2023-09-17T20:06:54.426Z,14.26
2023-09-17T20:09:22.542Z,14.17
2023-09-17T20:11:49.550Z,14.06
2023-09-17T20:14:16.582Z,14.00
2023-09-17T20:16:43.857Z,13.95
2023-09-17T20:19:11.223Z,13.94
2023-09-17T20:21:39.121Z,13.93
2023-09-17T20:24:07.456Z,13.86
2023-09-17T20:26:37.427Z,13.78
2023-09-17T20:29:05.323Z,13.74
2023-09-17T20:31:32.915Z,13.70
2023-09-17T20:35:50.627Z,13.65
2023-09-17T20:38:18.661Z,13.53
2023-09-17T20:40:46.201Z,13.47
2023-09-17T20:43:13.504Z,13.45
2023-09-17T20:45:40.447Z,13.45
2023-09-17T20:48:07.885Z,13.44
2023-09-17T20:50:35.296Z,13.41
2023-09-17T20:53:02.960Z,13.38
2023-09-17T20:55:30.602Z,13.34
2023-09-17T20:57:57.765Z,13.32
2023-09-17T21:00:25.324Z,13.28
2023-09-17T21:02:54.926Z,13.23
2023-09-17T21:05:23.838Z,13.19
2023-09-17T21:07:51.005Z,13.10
2023-09-17T21:10:18.840Z,13.03
2023-09-17T21:12:45.952Z,12.99
2023-09-17T21:15:13.184Z,12.97
2023-09-17T21:17:43.434Z,12.93
2023-09-17T21:20:19.843Z,12.87
2023-09-17T21:22:48.070Z,12.82
2023-09-17T21:25:17.125Z,12.81
2023-09-17T21:27:45.555Z,12.81
2023-09-17T21:30:13.707Z,12.80
2023-09-17T21:32:42.069Z,12.77
2023-09-17T21:35:11.691Z,12.70
2023-09-17T21:37:39.533Z,12.65
2023-09-17T21:40:07.502Z,12.62
2023-09-17T21:42:36.959Z,12.61
2023-09-17T21:45:05.096Z,12.62
2023-09-17T21:47:32.698Z,12.60
2023-09-17T21:50:01.564Z,12.56
2023-09-17T21:52:30.852Z,12.53
2023-09-17T21:54:58.250Z,12.51
2023-09-17T21:57:26.173Z,12.49
2023-09-17T21:59:53.785Z,12.48
2023-09-17T22:02:21.016Z,12.46
2023-09-17T22:04:49.593Z,12.41
2023-09-17T22:07:19.056Z,12.37
2023-09-17T22:09:46.466Z,12.32
2023-09-17T22:19:52.043Z,12.32
2023-09-17T22:22:20.277Z,12.32
2023-09-17T22:24:47.632Z,12.27
2023-09-17T22:27:16.222Z,12.23
2023-09-17T22:29:44.263Z,12.21
2023-09-17T22:32:11.466Z,12.19
2023-09-17T22:34:39.072Z,12.17
2023-09-17T22:37:06.275Z,12.13
2023-09-17T22:39:33.463Z,12.07
2023-09-17T22:42:00.804Z,12.03
2023-09-17T22:44:28.117Z,12.00
2023-09-17T22:46:55.103Z,11.98
2023-09-17T22:49:24.834Z,11.98
2023-09-17T22:51:51.931Z,11.97
2023-09-17T23:01:19.088Z,11.82
2023-09-17T23:03:46.576Z,11.73
2023-09-17T23:06:14.192Z,11.70
2023-09-17T23:08:42.939Z,11.70
2023-09-17T23:11:10.620Z,11.72
2023-09-17T23:13:38.459Z,11.74
2023-09-17T23:16:05.972Z,11.70
2023-09-17T23:18:34.119Z,11.65
2023-09-17T23:21:05.183Z,11.62
2023-09-17T23:23:32.963Z,11.61
2023-09-17T23:26:02.962Z,11.61
2023-09-17T23:28:34.692Z,11.61
2023-09-17T23:31:11.582Z,11.59
2023-09-17T23:33:40.955Z,11.57
2023-09-17T23:36:08.519Z,11.51
2023-09-17T23:38:36.179Z,11.49
2023-09-17T23:41:04.493Z,11.47
2023-09-17T23:43:31.623Z,11.44
2023-09-17T23:45:58.768Z,11.44
